»·PEaware :: SWA402 KSNA-KSFO

SWA402 :: KSNA-KSFO

FLIGHT INFORMATION

Flight Status: Arrived
Operator:
Southwest Airlines
More flights by this operator :: More flights under this callsign
Pilot: Josh B. (13786)
Aircraft: BOEING 737-300
(B733)
More flights by this aircraft type
Origin: KSNA John Wayne-Orange Co
United States
Destination: KSFO San Francisco Intl
United States
More flights between these airports :: More routes between these airports
Route: +MUSEL8 SXC STOKD SERFR WWAVS1
File this flight plan on PilotEdge
Remarks:
Altitude:
(Current/Filed)
24,000ft
Speed:
(Current/Filed)
300kts
Departed: 06-Apr-18 06:32 PM
Arrived: 06-Apr-18 07:43 PM
Distance/Time
Traveled:
323nm/1:11
Distance/Time
To Go:
Arrived

Flight Plot

Page will automatically refresh every two minutes.

Flight plan parsing failed; only flown route is shown


Map Options




Map Legend


Flown Route
Filed Route
Departure Airport
Arrival Airport
Navaid (VOR, NDB)
Fix

Horizontal Profiles

Position Reports

Time Latitude Longitude Heading Altitude Ground
Speed
06-Apr-18 17:57 33.682188 -117.860539 117 63ft 0kts
06-Apr-18 17:58 33.682188 -117.860539 117 63ft 0kts
06-Apr-18 17:59 33.682188 -117.860539 117 63ft 0kts
06-Apr-18 18:00 33.682188 -117.860539 117 63ft 0kts
06-Apr-18 18:01 33.682188 -117.860539 117 63ft 0kts
06-Apr-18 18:02 33.682188 -117.860539 117 63ft 0kts
06-Apr-18 18:03 33.682188 -117.860539 117 63ft 0kts
06-Apr-18 18:04 33.682188 -117.860539 117 63ft 0kts
06-Apr-18 18:05 33.682188 -117.860539 117 63ft 0kts
06-Apr-18 18:06 33.682188 -117.860539 117 63ft 0kts
06-Apr-18 18:07 33.682188 -117.860539 117 63ft 0kts
06-Apr-18 18:08 33.682188 -117.860539 117 63ft 0kts
06-Apr-18 18:09 33.682188 -117.860539 117 63ft 0kts
06-Apr-18 18:10 33.682188 -117.860539 117 63ft 0kts
06-Apr-18 18:11 33.682188 -117.860539 117 63ft 0kts
06-Apr-18 18:12 33.682188 -117.860539 117 63ft 0kts
06-Apr-18 18:13 33.682188 -117.860539 117 63ft 0kts
06-Apr-18 18:14 33.682188 -117.860539 117 63ft 0kts
06-Apr-18 18:15 33.682188 -117.860539 117 63ft 0kts
06-Apr-18 18:16 33.682188 -117.860539 117 63ft 0kts
06-Apr-18 18:17 33.682188 -117.860539 117 63ft 0kts
06-Apr-18 18:18 33.682188 -117.860539 117 63ft 0kts
06-Apr-18 18:19 33.682188 -117.860539 117 63ft 0kts
06-Apr-18 18:20 33.682188 -117.860539 117 63ft 0kts
06-Apr-18 18:21 33.682188 -117.860539 117 63ft 0kts
06-Apr-18 18:22 33.682188 -117.860539 117 63ft 0kts
06-Apr-18 18:23 33.682188 -117.860539 117 63ft 0kts
06-Apr-18 18:24 33.682188 -117.860539 117 63ft 0kts
06-Apr-18 18:25 33.682272 -117.860736 117 63ft 2kts
06-Apr-18 18:26 33.682538 -117.861168 202 63ft 0kts
06-Apr-18 18:27 33.682608 -117.861115 208 63ft 0kts
06-Apr-18 18:28 33.682043 -117.861483 207 63ft 9kts
06-Apr-18 18:29 33.680683 -117.863068 297 63ft 0kts
06-Apr-18 18:30 33.680876 -117.863498 297 63ft 8kts
06-Apr-18 18:31 33.673557 -117.870213 207 77ft 149kts
06-Apr-18 18:32 33.623310 -117.899515 187 2920ft 210kts
06-Apr-18 18:33 33.575582 -117.858561 172 5255ft 265kts
06-Apr-18 18:34 33.545045 -117.921616 293 8517ft 284kts
06-Apr-18 18:35 33.548042 -118.017470 242 10861ft 333kts
06-Apr-18 18:36 33.505465 -118.118895 243 13963ft 351kts
06-Apr-18 18:37 33.460020 -118.224597 242 16793ft 366kts
06-Apr-18 18:38 33.412763 -118.333654 242 19339ft 380kts
06-Apr-18 18:39 33.405919 -118.452918 305 21559ft 392kts
06-Apr-18 18:40 33.486328 -118.543290 316 23656ft 404kts
06-Apr-18 18:41 33.568423 -118.634265 317 23963ft 398kts
06-Apr-18 18:42 33.648007 -118.722302 317 23955ft 399kts
06-Apr-18 18:43 33.729414 -118.812408 317 23955ft 398kts
06-Apr-18 18:44 33.810492 -118.902368 317 23955ft 398kts
06-Apr-18 18:45 33.891922 -118.992961 317 23955ft 398kts
06-Apr-18 18:46 33.973123 -119.083546 317 23955ft 398kts
06-Apr-18 18:47 34.054159 -119.174195 317 23955ft 398kts
06-Apr-18 18:48 34.132973 -119.262423 317 23950ft 398kts
06-Apr-18 18:49 34.214195 -119.353648 317 23955ft 398kts
06-Apr-18 18:50 34.288934 -119.437923 317 23955ft 398kts
06-Apr-18 18:51 34.369103 -119.528510 317 23956ft 397kts
06-Apr-18 18:52 34.448855 -119.618913 317 23955ft 397kts
06-Apr-18 18:53 34.527620 -119.708756 316 23956ft 397kts
06-Apr-18 18:54 34.606588 -119.799076 316 23955ft 397kts
06-Apr-18 18:55 34.686062 -119.890177 316 23955ft 397kts
06-Apr-18 18:56 34.764408 -119.980218 316 23955ft 397kts
06-Apr-18 18:57 34.842127 -120.069673 316 23954ft 397kts
06-Apr-18 18:58 34.919381 -120.158821 316 23955ft 397kts
06-Apr-18 18:59 34.992639 -120.243582 316 23954ft 397kts
06-Apr-18 19:00 35.073779 -120.337717 316 23954ft 397kts
06-Apr-18 19:01 35.151216 -120.427775 316 23955ft 396kts
06-Apr-18 19:02 35.230446 -120.520243 316 23955ft 396kts
06-Apr-18 19:03 35.309514 -120.612789 316 23955ft 396kts
06-Apr-18 19:04 35.388282 -120.705615 315 23955ft 396kts
06-Apr-18 19:05 35.467557 -120.799171 315 23954ft 396kts
06-Apr-18 19:06 35.538501 -120.869447 323 23955ft 396kts
06-Apr-18 19:07 35.626273 -120.950649 322 23955ft 395kts
06-Apr-18 19:08 35.713997 -121.032228 322 23955ft 396kts
06-Apr-18 19:09 35.815951 -121.127335 322 23955ft 395kts
06-Apr-18 19:10 35.903490 -121.209245 322 23955ft 396kts
06-Apr-18 19:11 35.990963 -121.291329 322 23955ft 396kts
06-Apr-18 19:12 36.078480 -121.372512 327 23954ft 395kts
06-Apr-18 19:13 36.152534 -121.430168 328 23956ft 395kts
06-Apr-18 19:14 36.245232 -121.502434 328 23955ft 395kts
06-Apr-18 19:15 36.337777 -121.574862 328 23955ft 395kts
06-Apr-18 19:16 36.430296 -121.647477 328 23955ft 395kts
06-Apr-18 19:17 36.522742 -121.720724 327 23847ft 397kts
06-Apr-18 19:18 36.615605 -121.794287 327 20452ft 400kts
06-Apr-18 19:19 36.708731 -121.868083 327 16764ft 397kts
06-Apr-18 19:20 36.797045 -121.952275 319 14419ft 404kts
06-Apr-18 19:21 36.872035 -122.031217 319 14331ft 326kts
06-Apr-18 19:22 36.943621 -122.106542 319 14219ft 316kts
06-Apr-18 19:23 37.008990 -122.175459 319 13444ft 306kts
06-Apr-18 19:24 37.073039 -122.243163 319 11846ft 298kts
06-Apr-18 19:25 37.137652 -122.298974 344 10714ft 292kts
06-Apr-18 19:26 37.214403 -122.325108 344 10251ft 281kts
06-Apr-18 19:27 37.286705 -122.349894 344 10377ft 270kts
06-Apr-18 19:28 37.358416 -122.374520 344 9984ft 275kts
06-Apr-18 19:29 37.432293 -122.399972 344 8735ft 275kts
06-Apr-18 19:30 37.504704 -122.425021 344 7916ft 269kts
06-Apr-18 19:31 37.575643 -122.449492 344 6856ft 253kts
06-Apr-18 19:32 37.639972 -122.471692 345 5983ft 231kts
06-Apr-18 19:33 37.702555 -122.466492 16 6024ft 232kts
06-Apr-18 19:34 37.756135 -122.428867 46 5301ft 214kts
06-Apr-18 19:35 37.794560 -122.378085 46 4328ft 194kts
06-Apr-18 19:36 37.814355 -122.324507 132 3232ft 168kts
06-Apr-18 19:37 37.776724 -122.289892 144 1800ft 162kts
06-Apr-18 19:38 37.739585 -122.279569 222 2014ft 159kts
06-Apr-18 19:39 37.706840 -122.316037 205 1747ft 153kts
06-Apr-18 19:40 37.671556 -122.338410 206 936ft 137kts
06-Apr-18 19:41 37.637488 -122.360377 207 287ft 137kts
06-Apr-18 19:42 37.612899 -122.377553 266 24ft 21kts
06-Apr-18 19:43 37.612989 -122.378268 297 26ft 0kts
06-Apr-18 19:44 37.612989 -122.378268 297 26ft 0kts
06-Apr-18 19:45 37.613455 -122.382167 279 30ft 13kts
06-Apr-18 19:46 37.614415 -122.382722 29 30ft 0kts
06-Apr-18 19:47 37.614415 -122.382722 29 30ft 0kts
06-Apr-18 19:48 37.614415 -122.382722 29 30ft 0kts
06-Apr-18 19:49 37.614415 -122.382722 29 30ft 0kts
06-Apr-18 19:50 37.614415 -122.382722 29 30ft 0kts
06-Apr-18 19:51 37.614415 -122.382722 29 30ft 0kts
06-Apr-18 19:52 37.614415 -122.382722 29 30ft 0kts
06-Apr-18 19:53 37.614415 -122.382722 29 30ft 0kts
06-Apr-18 19:54 37.614415 -122.382722 29 30ft 0kts
06-Apr-18 19:55 37.614415 -122.382722 29 30ft 0kts
06-Apr-18 19:56 37.614415 -122.382722 29 30ft 0kts

Navigation Log

Ident Type
Flight plan parsing failed, navigation log unavailable